sensor_id;sensor_type;location;lat;lon;timestamp;P1;durP1;ratioP1;P2;durP2;ratioP2
74614;SDS011;63121;51.458;-0.110;2023-01-10T00:01:48;16.17;;;1.93;;
74614;SDS011;63121;51.458;-0.110;2023-01-10T00:04:14;6.32;;;1.25;;
74614;SDS011;63121;51.458;-0.110;2023-01-10T00:06:39;8.47;;;1.70;;
74614;SDS011;63121;51.458;-0.110;2023-01-10T00:09:04;12.00;;;2.10;;
74614;SDS011;63121;51.458;-0.110;2023-01-10T00:11:30;10.67;;;2.30;;
74614;SDS011;63121;51.458;-0.110;2023-01-10T00:14:13;11.82;;;1.67;;
74614;SDS011;63121;51.458;-0.110;2023-01-10T00:16:39;11.77;;;1.63;;
74614;SDS011;63121;51.458;-0.110;2023-01-10T00:19:06;11.98;;;1.50;;
74614;SDS011;63121;51.458;-0.110;2023-01-10T00:21:34;12.52;;;1.83;;
74614;SDS011;63121;51.458;-0.110;2023-01-10T00:24:00;11.20;;;1.90;;
74614;SDS011;63121;51.458;-0.110;2023-01-10T00:26:37;13.05;;;2.42;;
74614;SDS011;63121;51.458;-0.110;2023-01-10T00:29:03;7.25;;;1.27;;
74614;SDS011;63121;51.458;-0.110;2023-01-10T00:31:31;10.73;;;1.92;;
74614;SDS011;63121;51.458;-0.110;2023-01-10T00:33:57;15.30;;;2.33;;
74614;SDS011;63121;51.458;-0.110;2023-01-10T00:36:22;12.83;;;1.90;;
74614;SDS011;63121;51.458;-0.110;2023-01-10T00:38:47;10.13;;;1.43;;
74614;SDS011;63121;51.458;-0.110;2023-01-10T00:41:13;8.48;;;1.75;;
74614;SDS011;63121;51.458;-0.110;2023-01-10T00:43:58;9.07;;;1.58;;
74614;SDS011;63121;51.458;-0.110;2023-01-10T00:46:24;7.32;;;1.45;;
74614;SDS011;63121;51.458;-0.110;2023-01-10T00:48:50;13.13;;;2.05;;
74614;SDS011;63121;51.458;-0.110;2023-01-10T00:51:16;11.50;;;1.92;;
74614;SDS011;63121;51.458;-0.110;2023-01-10T00:53:42;11.60;;;1.77;;
74614;SDS011;63121;51.458;-0.110;2023-01-10T00:56:07;8.70;;;1.30;;
74614;SDS011;63121;51.458;-0.110;2023-01-10T00:58:33;8.90;;;1.53;;
74614;SDS011;63121;51.458;-0.110;2023-01-10T01:00:58;10.00;;;1.60;;
74614;SDS011;63121;51.458;-0.110;2023-01-10T01:03:24;11.30;;;1.77;;
74614;SDS011;63121;51.458;-0.110;2023-01-10T01:05:49;11.82;;;1.77;;
74614;SDS011;63121;51.458;-0.110;2023-01-10T01:08:15;13.40;;;1.73;;
74614;SDS011;63121;51.458;-0.110;2023-01-10T01:15:43;12.15;;;2.42;;
74614;SDS011;63121;51.458;-0.110;2023-01-10T01:18:10;10.02;;;1.60;;
74614;SDS011;63121;51.458;-0.110;2023-01-10T01:20:37;14.38;;;1.90;;
74614;SDS011;63121;51.458;-0.110;2023-01-10T01:23:03;10.02;;;1.90;;
74614;SDS011;63121;51.458;-0.110;2023-01-10T01:25:29;9.13;;;1.37;;
74614;SDS011;63121;51.458;-0.110;2023-01-10T01:27:54;10.57;;;1.80;;
74614;SDS011;63121;51.458;-0.110;2023-01-10T01:30:19;12.27;;;1.63;;
74614;SDS011;63121;51.458;-0.110;2023-01-10T01:32:45;7.03;;;1.38;;
74614;SDS011;63121;51.458;-0.110;2023-01-10T01:35:11;9.97;;;2.13;;
74614;SDS011;63121;51.458;-0.110;2023-01-10T01:37:38;12.68;;;1.60;;
74614;SDS011;63121;51.458;-0.110;2023-01-10T01:40:04;12.00;;;2.17;;
74614;SDS011;63121;51.458;-0.110;2023-01-10T01:42:32;11.63;;;1.73;;
74614;SDS011;63121;51.458;-0.110;2023-01-10T01:47:34;8.35;;;1.35;;
74614;SDS011;63121;51.458;-0.110;2023-01-10T01:50:05;7.68;;;1.02;;
74614;SDS011;63121;51.458;-0.110;2023-01-10T01:52:39;9.02;;;1.45;;
74614;SDS011;63121;51.458;-0.110;2023-01-10T01:55:04;10.13;;;1.40;;
74614;SDS011;63121;51.458;-0.110;2023-01-10T01:57:30;8.23;;;1.30;;
74614;SDS011;63121;51.458;-0.110;2023-01-10T01:59:57;11.13;;;1.95;;
74614;SDS011;63121;51.458;-0.110;2023-01-10T02:02:27;12.48;;;1.65;;
74614;SDS011;63121;51.458;-0.110;2023-01-10T02:04:59;11.48;;;1.98;;
74614;SDS011;63121;51.458;-0.110;2023-01-10T02:07:28;8.32;;;1.60;;
74614;SDS011;63121;51.458;-0.110;2023-01-10T02:10:05;7.78;;;1.30;;
74614;SDS011;63121;51.458;-0.110;2023-01-10T02:12:37;9.68;;;2.22;;
74614;SDS011;63121;51.458;-0.110;2023-01-10T02:15:04;6.47;;;1.50;;
74614;SDS011;63121;51.458;-0.110;2023-01-10T02:17:30;4.22;;;1.15;;
74614;SDS011;63121;51.458;-0.110;2023-01-10T02:33:44;8.45;;;1.77;;
74614;SDS011;63121;51.458;-0.110;2023-01-10T02:42:10;9.88;;;1.45;;
74614;SDS011;63121;51.458;-0.110;2023-01-10T02:47:22;13.27;;;1.60;;
74614;SDS011;63121;51.458;-0.110;2023-01-10T02:49:48;6.67;;;1.03;;
74614;SDS011;63121;51.458;-0.110;2023-01-10T02:52:22;6.97;;;1.75;;
74614;SDS011;63121;51.458;-0.110;2023-01-10T02:54:55;7.03;;;1.42;;
74614;SDS011;63121;51.458;-0.110;2023-01-10T03:00:34;15.05;;;1.95;;
74614;SDS011;63121;51.458;-0.110;2023-01-10T03:11:20;9.40;;;1.42;;
74614;SDS011;63121;51.458;-0.110;2023-01-10T03:14:04;9.13;;;1.52;;
74614;SDS011;63121;51.458;-0.110;2023-01-10T03:16:34;11.45;;;1.67;;
74614;SDS011;63121;51.458;-0.110;2023-01-10T03:19:05;10.93;;;1.73;;
74614;SDS011;63121;51.458;-0.110;2023-01-10T03:21:34;10.05;;;2.00;;
74614;SDS011;63121;51.458;-0.110;2023-01-10T03:24:04;8.27;;;1.77;;
74614;SDS011;63121;51.458;-0.110;2023-01-10T03:31:50;9.93;;;1.63;;
74614;SDS011;63121;51.458;-0.110;2023-01-10T03:34:20;12.88;;;1.95;;
74614;SDS011;63121;51.458;-0.110;2023-01-10T03:36:49;9.32;;;1.65;;
74614;SDS011;63121;51.458;-0.110;2023-01-10T03:39:31;8.90;;;1.50;;
74614;SDS011;63121;51.458;-0.110;2023-01-10T03:45:21;7.10;;;1.02;;
74614;SDS011;63121;51.458;-0.110;2023-01-10T03:47:57;10.18;;;1.67;;
74614;SDS011;63121;51.458;-0.110;2023-01-10T03:50:26;5.82;;;1.00;;
74614;SDS011;63121;51.458;-0.110;2023-01-10T03:52:54;8.88;;;1.50;;
74614;SDS011;63121;51.458;-0.110;2023-01-10T03:55:22;9.73;;;1.90;;
74614;SDS011;63121;51.458;-0.110;2023-01-10T03:57:50;9.38;;;1.48;;
74614;SDS011;63121;51.458;-0.110;2023-01-10T04:00:16;8.13;;;1.35;;
74614;SDS011;63121;51.458;-0.110;2023-01-10T04:02:42;9.98;;;1.48;;
74614;SDS011;63121;51.458;-0.110;2023-01-10T04:05:08;9.43;;;1.58;;
74614;SDS011;63121;51.458;-0.110;2023-01-10T04:07:33;9.80;;;1.80;;
74614;SDS011;63121;51.458;-0.110;2023-01-10T04:09:59;11.85;;;1.55;;
74614;SDS011;63121;51.458;-0.110;2023-01-10T04:12:24;8.20;;;1.55;;
74614;SDS011;63121;51.458;-0.110;2023-01-10T04:14:50;10.38;;;1.38;;
74614;SDS011;63121;51.458;-0.110;2023-01-10T04:17:16;10.07;;;1.58;;
74614;SDS011;63121;51.458;-0.110;2023-01-10T04:19:42;19.55;;;2.33;;
74614;SDS011;63121;51.458;-0.110;2023-01-10T04:22:08;9.40;;;1.85;;
74614;SDS011;63121;51.458;-0.110;2023-01-10T04:24:34;9.57;;;1.63;;
74614;SDS011;63121;51.458;-0.110;2023-01-10T04:27:00;4.30;;;1.08;;
74614;SDS011;63121;51.458;-0.110;2023-01-10T04:29:25;8.02;;;1.50;;
74614;SDS011;63121;51.458;-0.110;2023-01-10T04:31:51;11.90;;;1.58;;
74614;SDS011;63121;51.458;-0.110;2023-01-10T04:34:17;9.48;;;1.25;;
74614;SDS011;63121;51.458;-0.110;2023-01-10T04:36:44;9.10;;;1.60;;
74614;SDS011;63121;51.458;-0.110;2023-01-10T04:39:10;7.82;;;1.60;;
74614;SDS011;63121;51.458;-0.110;2023-01-10T04:41:35;7.82;;;1.23;;
74614;SDS011;63121;51.458;-0.110;2023-01-10T04:44:03;10.88;;;1.50;;
74614;SDS011;63121;51.458;-0.110;2023-01-10T04:46:29;7.53;;;1.42;;
74614;SDS011;63121;51.458;-0.110;2023-01-10T04:48:55;7.93;;;1.45;;
74614;SDS011;63121;51.458;-0.110;2023-01-10T04:51:22;7.82;;;1.50;;
74614;SDS011;63121;51.458;-0.110;2023-01-10T04:53:47;9.43;;;1.40;;
74614;SDS011;63121;51.458;-0.110;2023-01-10T04:56:16;9.03;;;1.57;;
74614;SDS011;63121;51.458;-0.110;2023-01-10T04:58:42;6.95;;;1.25;;
74614;SDS011;63121;51.458;-0.110;2023-01-10T05:01:09;6.90;;;1.30;;
74614;SDS011;63121;51.458;-0.110;2023-01-10T05:03:48;8.45;;;1.50;;
74614;SDS011;63121;51.458;-0.110;2023-01-10T05:06:23;7.55;;;1.55;;
74614;SDS011;63121;51.458;-0.110;2023-01-10T05:08:49;7.85;;;1.73;;
74614;SDS011;63121;51.458;-0.110;2023-01-10T05:11:14;8.77;;;1.63;;
74614;SDS011;63121;51.458;-0.110;2023-01-10T05:13:40;5.57;;;1.47;;
74614;SDS011;63121;51.458;-0.110;2023-01-10T05:16:05;12.02;;;1.90;;
74614;SDS011;63121;51.458;-0.110;2023-01-10T05:18:31;8.20;;;1.60;;
74614;SDS011;63121;51.458;-0.110;2023-01-10T05:21:03;11.20;;;2.28;;
74614;SDS011;63121;51.458;-0.110;2023-01-10T05:23:30;10.07;;;1.42;;
74614;SDS011;63121;51.458;-0.110;2023-01-10T05:25:56;8.65;;;1.35;;
74614;SDS011;63121;51.458;-0.110;2023-01-10T05:28:21;9.13;;;1.73;;
74614;SDS011;63121;51.458;-0.110;2023-01-10T05:30:47;9.05;;;1.73;;
74614;SDS011;63121;51.458;-0.110;2023-01-10T05:33:12;11.38;;;1.73;;
74614;SDS011;63121;51.458;-0.110;2023-01-10T05:35:38;8.07;;;1.53;;
74614;SDS011;63121;51.458;-0.110;2023-01-10T05:38:03;12.02;;;1.55;;
74614;SDS011;63121;51.458;-0.110;2023-01-10T05:40:28;6.80;;;1.33;;
74614;SDS011;63121;51.458;-0.110;2023-01-10T05:42:54;12.68;;;1.80;;
74614;SDS011;63121;51.458;-0.110;2023-01-10T05:45:19;7.90;;;1.40;;
74614;SDS011;63121;51.458;-0.110;2023-01-10T05:47:45;15.57;;;2.00;;
74614;SDS011;63121;51.458;-0.110;2023-01-10T05:50:10;10.97;;;1.53;;
74614;SDS011;63121;51.458;-0.110;2023-01-10T05:52:36;9.82;;;1.65;;
74614;SDS011;63121;51.458;-0.110;2023-01-10T05:55:01;15.23;;;1.97;;
74614;SDS011;63121;51.458;-0.110;2023-01-10T05:57:26;11.02;;;1.52;;
74614;SDS011;63121;51.458;-0.110;2023-01-10T05:59:52;14.57;;;1.63;;
74614;SDS011;63121;51.458;-0.110;2023-01-10T06:02:17;12.23;;;1.40;;
74614;SDS011;63121;51.458;-0.110;2023-01-10T06:04:42;12.32;;;1.75;;
74614;SDS011;63121;51.458;-0.110;2023-01-10T06:07:08;7.87;;;1.10;;
74614;SDS011;63121;51.458;-0.110;2023-01-10T06:09:33;13.37;;;2.13;;
74614;SDS011;63121;51.458;-0.110;2023-01-10T06:11:58;10.63;;;1.45;;
74614;SDS011;63121;51.458;-0.110;2023-01-10T06:14:24;8.52;;;1.83;;
74614;SDS011;63121;51.458;-0.110;2023-01-10T06:16:49;11.80;;;1.77;;
74614;SDS011;63121;51.458;-0.110;2023-01-10T06:19:15;7.13;;;1.20;;
74614;SDS011;63121;51.458;-0.110;2023-01-10T06:21:40;11.43;;;1.80;;
74614;SDS011;63121;51.458;-0.110;2023-01-10T06:24:06;10.63;;;1.35;;
74614;SDS011;63121;51.458;-0.110;2023-01-10T06:26:31;9.93;;;1.48;;
74614;SDS011;63121;51.458;-0.110;2023-01-10T06:28:56;13.30;;;2.07;;
74614;SDS011;63121;51.458;-0.110;2023-01-10T06:31:23;9.40;;;1.50;;
74614;SDS011;63121;51.458;-0.110;2023-01-10T06:33:50;9.55;;;1.33;;
74614;SDS011;63121;51.458;-0.110;2023-01-10T06:36:15;18.20;;;2.65;;
74614;SDS011;63121;51.458;-0.110;2023-01-10T06:38:41;10.07;;;1.40;;
74614;SDS011;63121;51.458;-0.110;2023-01-10T06:41:06;4.03;;;0.80;;
74614;SDS011;63121;51.458;-0.110;2023-01-10T06:43:40;10.35;;;1.52;;
74614;SDS011;63121;51.458;-0.110;2023-01-10T06:46:07;12.13;;;1.75;;
74614;SDS011;63121;51.458;-0.110;2023-01-10T06:48:36;12.95;;;1.83;;
74614;SDS011;63121;51.458;-0.110;2023-01-10T06:51:03;10.60;;;1.40;;
74614;SDS011;63121;51.458;-0.110;2023-01-10T06:53:29;11.02;;;1.60;;
74614;SDS011;63121;51.458;-0.110;2023-01-10T06:55:55;14.70;;;1.90;;
74614;SDS011;63121;51.458;-0.110;2023-01-10T06:58:21;10.43;;;1.52;;
74614;SDS011;63121;51.458;-0.110;2023-01-10T07:00:47;11.90;;;1.48;;
74614;SDS011;63121;51.458;-0.110;2023-01-10T07:03:12;18.42;;;2.70;;
74614;SDS011;63121;51.458;-0.110;2023-01-10T07:05:38;17.13;;;2.15;;
74614;SDS011;63121;51.458;-0.110;2023-01-10T07:08:03;12.45;;;1.70;;
74614;SDS011;63121;51.458;-0.110;2023-01-10T07:10:29;12.82;;;2.13;;
74614;SDS011;63121;51.458;-0.110;2023-01-10T07:12:54;12.10;;;1.63;;
74614;SDS011;63121;51.458;-0.110;2023-01-10T07:15:20;11.32;;;2.28;;
74614;SDS011;63121;51.458;-0.110;2023-01-10T07:17:46;13.90;;;1.98;;
74614;SDS011;63121;51.458;-0.110;2023-01-10T07:20:11;8.70;;;1.23;;
74614;SDS011;63121;51.458;-0.110;2023-01-10T07:22:37;9.60;;;1.63;;
74614;SDS011;63121;51.458;-0.110;2023-01-10T07:25:03;17.60;;;2.13;;
74614;SDS011;63121;51.458;-0.110;2023-01-10T07:27:30;11.25;;;1.70;;
74614;SDS011;63121;51.458;-0.110;2023-01-10T07:29:56;10.27;;;1.92;;
74614;SDS011;63121;51.458;-0.110;2023-01-10T07:32:21;15.18;;;2.03;;
74614;SDS011;63121;51.458;-0.110;2023-01-10T07:34:47;15.77;;;1.87;;
74614;SDS011;63121;51.458;-0.110;2023-01-10T07:37:12;10.02;;;1.55;;
74614;SDS011;63121;51.458;-0.110;2023-01-10T07:39:37;16.97;;;2.00;;
74614;SDS011;63121;51.458;-0.110;2023-01-10T07:42:03;9.57;;;1.80;;
74614;SDS011;63121;51.458;-0.110;2023-01-10T07:44:28;14.98;;;1.85;;
74614;SDS011;63121;51.458;-0.110;2023-01-10T07:46:54;10.47;;;1.43;;
74614;SDS011;63121;51.458;-0.110;2023-01-10T07:49:19;12.40;;;1.50;;
74614;SDS011;63121;51.458;-0.110;2023-01-10T07:51:44;11.90;;;2.00;;
74614;SDS011;63121;51.458;-0.110;2023-01-10T07:54:10;13.93;;;2.45;;
74614;SDS011;63121;51.458;-0.110;2023-01-10T07:56:36;13.73;;;1.98;;
74614;SDS011;63121;51.458;-0.110;2023-01-10T07:59:02;12.18;;;1.60;;
74614;SDS011;63121;51.458;-0.110;2023-01-10T08:01:27;7.25;;;1.52;;
74614;SDS011;63121;51.458;-0.110;2023-01-10T08:03:54;11.00;;;1.50;;
74614;SDS011;63121;51.458;-0.110;2023-01-10T08:06:20;17.67;;;2.55;;
74614;SDS011;63121;51.458;-0.110;2023-01-10T08:08:46;10.57;;;2.00;;
74614;SDS011;63121;51.458;-0.110;2023-01-10T08:11:11;9.70;;;1.47;;
74614;SDS011;63121;51.458;-0.110;2023-01-10T08:13:37;9.55;;;2.28;;
74614;SDS011;63121;51.458;-0.110;2023-01-10T08:16:05;15.07;;;1.73;;
74614;SDS011;63121;51.458;-0.110;2023-01-10T08:18:32;12.10;;;2.42;;
74614;SDS011;63121;51.458;-0.110;2023-01-10T08:20:58;8.68;;;2.10;;
74614;SDS011;63121;51.458;-0.110;2023-01-10T08:23:24;6.25;;;1.23;;
74614;SDS011;63121;51.458;-0.110;2023-01-10T08:25:51;7.32;;;1.30;;
74614;SDS011;63121;51.458;-0.110;2023-01-10T08:28:16;9.77;;;1.58;;
74614;SDS011;63121;51.458;-0.110;2023-01-10T08:30:42;8.95;;;1.88;;
74614;SDS011;63121;51.458;-0.110;2023-01-10T08:33:08;14.45;;;2.03;;
74614;SDS011;63121;51.458;-0.110;2023-01-10T08:35:35;10.07;;;1.40;;
74614;SDS011;63121;51.458;-0.110;2023-01-10T08:38:05;9.40;;;1.30;;
74614;SDS011;63121;51.458;-0.110;2023-01-10T08:40:31;10.10;;;1.45;;
74614;SDS011;63121;51.458;-0.110;2023-01-10T08:42:57;8.55;;;1.08;;
74614;SDS011;63121;51.458;-0.110;2023-01-10T08:45:23;7.72;;;1.30;;
74614;SDS011;63121;51.458;-0.110;2023-01-10T08:47:48;5.60;;;1.87;;
74614;SDS011;63121;51.458;-0.110;2023-01-10T08:50:14;6.28;;;1.27;;
74614;SDS011;63121;51.458;-0.110;2023-01-10T08:52:39;9.68;;;1.20;;
74614;SDS011;63121;51.458;-0.110;2023-01-10T08:55:05;6.67;;;1.33;;
74614;SDS011;63121;51.458;-0.110;2023-01-10T08:57:31;5.97;;;1.10;;
74614;SDS011;63121;51.458;-0.110;2023-01-10T08:59:56;15.00;;;1.93;;
74614;SDS011;63121;51.458;-0.110;2023-01-10T09:02:21;5.20;;;1.10;;
74614;SDS011;63121;51.458;-0.110;2023-01-10T09:04:47;3.43;;;1.10;;
74614;SDS011;63121;51.458;-0.110;2023-01-10T09:07:12;6.80;;;1.60;;
74614;SDS011;63121;51.458;-0.110;2023-01-10T09:09:37;8.53;;;1.23;;
74614;SDS011;63121;51.458;-0.110;2023-01-10T09:12:03;2.73;;;0.93;;
74614;SDS011;63121;51.458;-0.110;2023-01-10T09:14:48;5.82;;;1.20;;
74614;SDS011;63121;51.458;-0.110;2023-01-10T09:17:14;5.45;;;1.35;;
74614;SDS011;63121;51.458;-0.110;2023-01-10T09:19:39;9.97;;;1.47;;
74614;SDS011;63121;51.458;-0.110;2023-01-10T09:22:05;6.38;;;0.80;;
74614;SDS011;63121;51.458;-0.110;2023-01-10T09:24:30;5.70;;;1.13;;
74614;SDS011;63121;51.458;-0.110;2023-01-10T09:26:55;5.83;;;1.13;;
74614;SDS011;63121;51.458;-0.110;2023-01-10T09:29:21;8.00;;;0.87;;
74614;SDS011;63121;51.458;-0.110;2023-01-10T09:31:46;2.37;;;0.70;;
74614;SDS011;63121;51.458;-0.110;2023-01-10T09:34:11;3.60;;;0.80;;
74614;SDS011;63121;51.458;-0.110;2023-01-10T09:36:37;2.00;;;0.40;;
74614;SDS011;63121;51.458;-0.110;2023-01-10T09:39:02;4.63;;;0.97;;
74614;SDS011;63121;51.458;-0.110;2023-01-10T09:51:58;1.95;;;0.50;;
74614;SDS011;63121;51.458;-0.110;2023-01-10T09:56:58;1.15;;;0.45;;
74614;SDS011;63121;51.458;-0.110;2023-01-10T09:59:26;0.90;;;0.40;;
74614;SDS011;63121;51.458;-0.110;2023-01-10T10:02:03;2.25;;;0.60;;
74614;SDS011;63121;51.458;-0.110;2023-01-10T10:04:41;1.45;;;0.60;;
74614;SDS011;63121;51.458;-0.110;2023-01-10T10:07:11;0.95;;;0.30;;
74614;SDS011;63121;51.458;-0.110;2023-01-10T10:09:38;3.70;;;0.43;;
74614;SDS011;63121;51.458;-0.110;2023-01-10T10:23:33;1.40;;;0.55;;
74614;SDS011;63121;51.458;-0.110;2023-01-10T10:26:10;1.08;;;0.38;;
74614;SDS011;63121;51.458;-0.110;2023-01-10T10:31:40;0.88;;;0.40;;
74614;SDS011;63121;51.458;-0.110;2023-01-10T10:37:02;1.20;;;0.50;;
74614;SDS011;63121;51.458;-0.110;2023-01-10T10:39:36;0.85;;;0.40;;
74614;SDS011;63121;51.458;-0.110;2023-01-10T10:42:09;1.83;;;0.38;;
74614;SDS011;63121;51.458;-0.110;2023-01-10T10:47:26;1.08;;;0.32;;
74614;SDS011;63121;51.458;-0.110;2023-01-10T10:52:40;1.08;;;0.43;;
74614;SDS011;63121;51.458;-0.110;2023-01-10T10:55:18;1.42;;;0.43;;
74614;SDS011;63121;51.458;-0.110;2023-01-10T10:57:51;1.95;;;0.40;;
74614;SDS011;63121;51.458;-0.110;2023-01-10T11:00:25;0.35;;;0.35;;
74614;SDS011;63121;51.458;-0.110;2023-01-10T11:03:03;1.40;;;0.55;;
74614;SDS011;63121;51.458;-0.110;2023-01-10T11:05:40;0.95;;;0.52;;
74614;SDS011;63121;51.458;-0.110;2023-01-10T11:08:09;2.15;;;0.73;;
74614;SDS011;63121;51.458;-0.110;2023-01-10T11:10:47;2.08;;;0.85;;
74614;SDS011;63121;51.458;-0.110;2023-01-10T11:15:56;1.88;;;0.40;;
74614;SDS011;63121;51.458;-0.110;2023-01-10T11:18:23;1.52;;;0.50;;
74614;SDS011;63121;51.458;-0.110;2023-01-10T11:21:02;3.17;;;0.55;;
74614;SDS011;63121;51.458;-0.110;2023-01-10T11:28:52;1.67;;;0.60;;
74614;SDS011;63121;51.458;-0.110;2023-01-10T11:31:29;1.52;;;0.82;;
74614;SDS011;63121;51.458;-0.110;2023-01-10T11:33:56;2.13;;;0.80;;
74614;SDS011;63121;51.458;-0.110;2023-01-10T11:36:22;1.20;;;0.50;;
74614;SDS011;63121;51.458;-0.110;2023-01-10T11:38:58;1.60;;;0.70;;
74614;SDS011;63121;51.458;-0.110;2023-01-10T11:41:28;1.27;;;0.30;;
74614;SDS011;63121;51.458;-0.110;2023-01-10T11:44:17;0.60;;;0.30;;
74614;SDS011;63121;51.458;-0.110;2023-01-10T11:46:47;0.40;;;0.20;;
74614;SDS011;63121;51.458;-0.110;2023-01-10T11:49:14;1.00;;;0.32;;
74614;SDS011;63121;51.458;-0.110;2023-01-10T11:51:51;0.65;;;0.50;;
74614;SDS011;63121;51.458;-0.110;2023-01-10T11:54:29;0.55;;;0.35;;
74614;SDS011;63121;51.458;-0.110;2023-01-10T11:56:58;1.67;;;0.70;;
74614;SDS011;63121;51.458;-0.110;2023-01-10T11:59:27;1.20;;;0.50;;
74614;SDS011;63121;51.458;-0.110;2023-01-10T12:04:30;1.77;;;0.68;;
74614;SDS011;63121;51.458;-0.110;2023-01-10T12:07:00;3.65;;;1.00;;
74614;SDS011;63121;51.458;-0.110;2023-01-10T12:09:42;2.88;;;1.00;;
74614;SDS011;63121;51.458;-0.110;2023-01-10T12:12:22;2.05;;;0.80;;
74614;SDS011;63121;51.458;-0.110;2023-01-10T12:14:50;3.17;;;0.98;;
74614;SDS011;63121;51.458;-0.110;2023-01-10T12:17:26;3.15;;;0.82;;
74614;SDS011;63121;51.458;-0.110;2023-01-10T12:19:55;3.17;;;0.60;;
74614;SDS011;63121;51.458;-0.110;2023-01-10T12:25:05;2.28;;;0.70;;
74614;SDS011;63121;51.458;-0.110;2023-01-10T12:27:40;3.80;;;0.90;;
74614;SDS011;63121;51.458;-0.110;2023-01-10T12:30:13;3.35;;;0.70;;
74614;SDS011;63121;51.458;-0.110;2023-01-10T12:32:53;1.65;;;0.52;;
74614;SDS011;63121;51.458;-0.110;2023-01-10T12:38:32;1.30;;;0.70;;
74614;SDS011;63121;51.458;-0.110;2023-01-10T12:41:28;1.60;;;0.70;;
74614;SDS011;63121;51.458;-0.110;2023-01-10T12:44:17;2.47;;;0.60;;
74614;SDS011;63121;51.458;-0.110;2023-01-10T12:46:47;4.53;;;0.82;;
74614;SDS011;63121;51.458;-0.110;2023-01-10T12:49:27;3.22;;;0.85;;
74614;SDS011;63121;51.458;-0.110;2023-01-10T12:51:55;2.78;;;0.98;;
74614;SDS011;63121;51.458;-0.110;2023-01-10T12:54:25;5.40;;;0.98;;
74614;SDS011;63121;51.458;-0.110;2023-01-10T12:56:53;5.15;;;1.02;;
74614;SDS011;63121;51.458;-0.110;2023-01-10T12:59:40;4.68;;;1.10;;
74614;SDS011;63121;51.458;-0.110;2023-01-10T13:02:18;4.90;;;1.02;;
74614;SDS011;63121;51.458;-0.110;2023-01-10T13:04:54;6.60;;;1.27;;
74614;SDS011;63121;51.458;-0.110;2023-01-10T13:07:24;4.35;;;1.30;;
74614;SDS011;63121;51.458;-0.110;2023-01-10T13:09:53;5.63;;;1.40;;
74614;SDS011;63121;51.458;-0.110;2023-01-10T13:12:20;8.73;;;1.67;;
74614;SDS011;63121;51.458;-0.110;2023-01-10T13:15:01;11.70;;;2.22;;
74614;SDS011;63121;51.458;-0.110;2023-01-10T13:17:44;11.35;;;1.77;;
74614;SDS011;63121;51.458;-0.110;2023-01-10T13:22:48;12.73;;;2.35;;
74614;SDS011;63121;51.458;-0.110;2023-01-10T13:25:30;18.73;;;2.60;;
74614;SDS011;63121;51.458;-0.110;2023-01-10T13:28:21;14.40;;;2.95;;
74614;SDS011;63121;51.458;-0.110;2023-01-10T13:30:54;21.10;;;2.95;;
74614;SDS011;63121;51.458;-0.110;2023-01-10T13:33:24;17.25;;;2.35;;
74614;SDS011;63121;51.458;-0.110;2023-01-10T13:35:53;13.45;;;3.03;;
74614;SDS011;63121;51.458;-0.110;2023-01-10T13:38:34;17.15;;;3.40;;
74614;SDS011;63121;51.458;-0.110;2023-01-10T13:41:11;15.10;;;2.78;;
74614;SDS011;63121;51.458;-0.110;2023-01-10T13:44:18;16.85;;;3.50;;
74614;SDS011;63121;51.458;-0.110;2023-01-10T13:46:46;19.95;;;3.42;;
74614;SDS011;63121;51.458;-0.110;2023-01-10T13:49:20;20.13;;;3.45;;
74614;SDS011;63121;51.458;-0.110;2023-01-10T13:55:34;19.00;;;3.35;;
74614;SDS011;63121;51.458;-0.110;2023-01-10T13:57:56;26.38;;;3.65;;
74614;SDS011;63121;51.458;-0.110;2023-01-10T14:08:53;21.63;;;2.80;;
74614;SDS011;63121;51.458;-0.110;2023-01-10T14:11:20;27.92;;;3.88;;
74614;SDS011;63121;51.458;-0.110;2023-01-10T14:13:50;25.42;;;3.70;;
74614;SDS011;63121;51.458;-0.110;2023-01-10T14:16:29;24.92;;;3.80;;
74614;SDS011;63121;51.458;-0.110;2023-01-10T14:18:59;23.10;;;3.47;;
74614;SDS011;63121;51.458;-0.110;2023-01-10T14:21:26;21.35;;;3.50;;
74614;SDS011;63121;51.458;-0.110;2023-01-10T14:23:54;21.58;;;3.70;;
74614;SDS011;63121;51.458;-0.110;2023-01-10T14:28:52;19.50;;;3.28;;
74614;SDS011;63121;51.458;-0.110;2023-01-10T14:31:20;16.55;;;3.20;;
74614;SDS011;63121;51.458;-0.110;2023-01-10T14:33:47;21.27;;;3.78;;
74614;SDS011;63121;51.458;-0.110;2023-01-10T14:36:36;28.35;;;3.70;;
74614;SDS011;63121;51.458;-0.110;2023-01-10T14:39:05;18.45;;;3.25;;
74614;SDS011;63121;51.458;-0.110;2023-01-10T14:41:35;20.58;;;3.05;;
74614;SDS011;63121;51.458;-0.110;2023-01-10T14:44:14;17.60;;;3.15;;
74614;SDS011;63121;51.458;-0.110;2023-01-10T14:49:23;14.35;;;2.60;;
74614;SDS011;63121;51.458;-0.110;2023-01-10T14:51:51;19.73;;;2.42;;
74614;SDS011;63121;51.458;-0.110;2023-01-10T14:54:18;12.88;;;2.50;;
74614;SDS011;63121;51.458;-0.110;2023-01-10T14:56:48;15.55;;;2.53;;
74614;SDS011;63121;51.458;-0.110;2023-01-10T15:01:41;11.43;;;2.08;;
74614;SDS011;63121;51.458;-0.110;2023-01-10T15:04:21;13.25;;;2.35;;
74614;SDS011;63121;51.458;-0.110;2023-01-10T15:06:51;13.38;;;2.70;;
74614;SDS011;63121;51.458;-0.110;2023-01-10T15:09:18;14.75;;;1.75;;
74614;SDS011;63121;51.458;-0.110;2023-01-10T15:11:44;10.90;;;1.80;;
74614;SDS011;63121;51.458;-0.110;2023-01-10T15:14:11;11.77;;;2.20;;
74614;SDS011;63121;51.458;-0.110;2023-01-10T15:16:41;12.95;;;3.00;;
74614;SDS011;63121;51.458;-0.110;2023-01-10T15:19:12;10.77;;;2.20;;
74614;SDS011;63121;51.458;-0.110;2023-01-10T15:21:41;13.27;;;2.30;;
74614;SDS011;63121;51.458;-0.110;2023-01-10T15:27:00;10.50;;;2.15;;
74614;SDS011;63121;51.458;-0.110;2023-01-10T15:29:28;8.35;;;1.50;;
74614;SDS011;63121;51.458;-0.110;2023-01-10T15:32:01;14.00;;;1.83;;
74614;SDS011;63121;51.458;-0.110;2023-01-10T15:34:48;15.95;;;2.40;;
74614;SDS011;63121;51.458;-0.110;2023-01-10T15:37:23;11.05;;;1.90;;
74614;SDS011;63121;51.458;-0.110;2023-01-10T15:39:52;14.30;;;2.45;;
74614;SDS011;63121;51.458;-0.110;2023-01-10T15:42:19;11.68;;;2.15;;
74614;SDS011;63121;51.458;-0.110;2023-01-10T15:50:24;11.07;;;2.25;;
74614;SDS011;63121;51.458;-0.110;2023-01-10T15:53:02;13.18;;;2.25;;
74614;SDS011;63121;51.458;-0.110;2023-01-10T16:00:51;17.88;;;2.20;;
74614;SDS011;63121;51.458;-0.110;2023-01-10T16:03:26;16.48;;;2.47;;
74614;SDS011;63121;51.458;-0.110;2023-01-10T16:06:00;12.10;;;2.22;;
74614;SDS011;63121;51.458;-0.110;2023-01-10T16:08:31;13.68;;;2.33;;
74614;SDS011;63121;51.458;-0.110;2023-01-10T16:11:04;16.55;;;2.80;;
74614;SDS011;63121;51.458;-0.110;2023-01-10T16:13:32;20.77;;;3.15;;
74614;SDS011;63121;51.458;-0.110;2023-01-10T16:16:00;19.80;;;3.00;;
74614;SDS011;63121;51.458;-0.110;2023-01-10T16:18:29;15.05;;;2.22;;
74614;SDS011;63121;51.458;-0.110;2023-01-10T16:20:58;16.90;;;3.03;;
74614;SDS011;63121;51.458;-0.110;2023-01-10T16:23:29;21.80;;;3.05;;
74614;SDS011;63121;51.458;-0.110;2023-01-10T16:25:59;14.32;;;2.00;;
74614;SDS011;63121;51.458;-0.110;2023-01-10T16:28:27;26.90;;;2.95;;
74614;SDS011;63121;51.458;-0.110;2023-01-10T16:30:54;17.98;;;3.75;;
74614;SDS011;63121;51.458;-0.110;2023-01-10T16:33:23;16.17;;;2.88;;
74614;SDS011;63121;51.458;-0.110;2023-01-10T16:35:52;21.60;;;3.22;;
74614;SDS011;63121;51.458;-0.110;2023-01-10T16:38:19;18.38;;;3.03;;
74614;SDS011;63121;51.458;-0.110;2023-01-10T16:40:47;20.67;;;3.60;;
74614;SDS011;63121;51.458;-0.110;2023-01-10T16:43:15;17.83;;;3.03;;
74614;SDS011;63121;51.458;-0.110;2023-01-10T16:45:55;23.92;;;3.60;;
74614;SDS011;63121;51.458;-0.110;2023-01-10T16:48:26;16.40;;;3.10;;
74614;SDS011;63121;51.458;-0.110;2023-01-10T16:50:53;16.02;;;2.42;;
74614;SDS011;63121;51.458;-0.110;2023-01-10T16:53:19;19.88;;;2.38;;
74614;SDS011;63121;51.458;-0.110;2023-01-10T16:55:46;15.73;;;3.00;;
74614;SDS011;63121;51.458;-0.110;2023-01-10T16:58:13;17.45;;;2.30;;